EDT,Max TemperatureF,Mean TemperatureF,Min TemperatureF,Max Dew PointF,MeanDew PointF,Min DewpointF,Max Humidity, Mean Humidity, Min Humidity, Max Sea Level PressureIn, Mean Sea Level PressureIn, Min Sea Level PressureIn, Max VisibilityMiles, Mean VisibilityMiles, Min VisibilityMiles, Max Wind SpeedMPH, Mean Wind SpeedMPH, Max Gust SpeedMPH,PrecipitationIn, CloudCover, Events, WindDirDegrees
2013-4-1,71,58,46,52,40,32,100,59,23,29.97,29.89,29.85,10,8,0,14,2,22,0.01,3,Fog-Rain,293
2013-4-2,62,48,33,36,26,14,93,42,15,30.16,30.08,29.97,10,10,10,14,3,20,0.00,1,,312
2013-4-3,60,50,41,34,20,14,66,32,19,30.28,30.22,30.13,10,10,10,12,4,17,0.00,1,,24
2013-4-4,46,40,33,36,29,14,100,69,27,30.28,30.17,29.98,10,8,2,13,5,22,0.63,7,Rain,23
2013-4-5,64,50,35,43,37,28,100,68,26,30.06,29.96,29.90,10,10,7,12,3,16,0.00,5,,330
2013-4-6,69,50,32,37,33,27,100,57,21,30.23,30.16,30.06,10,10,10,8,2,,0.00,0,,114
2013-4-7,71,53,35,45,40,34,100,60,29,30.26,30.18,30.10,10,10,10,13,4,23,0.00,1,,213
2013-4-8,77,60,44,52,47,43,100,62,32,30.17,30.12,30.06,10,10,10,16,3,25,0.00,1,,225
2013-4-9,82,66,50,54,50,46,100,57,32,30.21,30.14,30.10,10,10,10,13,3,20,0.00,0,,236
2013-4-10,86,72,59,55,53,50,82,54,29,30.12,30.05,29.96,10,10,10,14,5,20,0.00,0,,228
2013-4-11,80,70,60,66,58,54,94,69,42,30.00,29.90,29.76,10,10,5,14,6,20,0.24,5,Rain,214
2013-4-12,80,70,59,64,51,32,100,58,23,29.83,29.71,29.65,10,10,2,24,9,29,1.04,4,Rain,233
2013-4-13,77,58,39,41,34,23,100,47,13,30.03,29.94,29.84,10,10,10,12,2,21,0.00,0,,272
2013-4-14,77,59,41,52,40,34,93,54,22,30.10,30.05,30.00,10,10,10,9,2,,0.00,2,Rain,186
2013-4-15,64,58,53,57,55,50,100,88,72,30.22,30.09,30.00,10,9,2,8,2,,0.09,8,Rain,347
2013-4-16,78,66,53,59,55,54,100,74,42,30.31,30.24,30.20,10,9,4,9,1,,0.00,5,,212
2013-4-17,80,66,53,59,56,50,100,71,39,30.25,30.19,30.12,10,9,5,9,2,,0.00,3,,286
2013-4-18,80,70,59,59,57,52,100,70,37,30.17,30.10,30.00,10,10,10,10,2,16,0.00,6,,184
2013-4-19,77,65,53,64,59,52,94,82,57,30.00,29.85,29.76,10,10,2,20,8,30,0.37,7,Rain,211
2013-4-20,64,53,41,43,30,23,81,47,24,30.28,30.11,29.92,10,10,10,9,4,20,0.00,0,,307
2013-4-21,62,48,35,39,34,28,93,54,36,30.45,30.39,30.28,10,10,10,13,5,20,0.00,2,,31
2013-4-22,62,52,41,37,31,25,87,52,24,30.44,30.34,30.24,10,10,7,15,6,23,0.00,0,,24
2013-4-23,69,55,41,48,41,34,94,61,38,30.28,30.20,30.11,10,10,10,7,1,,0.00,4,,36
2013-4-24,71,58,44,54,50,45,100,75,46,30.14,30.09,30.01,10,10,5,17,4,24,0.03,3,,225
2013-4-25,71,58,46,55,38,23,94,51,16,30.30,30.20,30.06,10,10,7,12,5,17,0.00,2,,333
2013-4-26,69,54,39,46,34,28,81,49,21,30.45,30.36,30.30,10,10,10,9,2,20,0.00,1,,13
2013-4-27,62,56,51,55,51,45,100,83,63,30.36,30.33,30.25,10,8,3,8,1,,0.13,8,Rain,265
2013-4-28,55,54,53,54,53,52,100,97,94,30.26,30.16,30.05,10,5,1,7,1,,1.99,8,Rain,355
2013-4-29,71,62,53,59,55,54,100,85,53,30.07,30.02,29.95,10,9,4,8,1,,0.16,7,Rain,223
2013-4-30,71,62,53,59,56,54,100,84,57,30.18,30.09,30.00,10,7,0,8,2,,0.00,5,Fog,312